Time;durP1;ratioP1;P1;durP2;ratioP2;P2;SDS_P1;SDS_P2;PMS_P1;PMS_P2;Temp;Humidity;BMP_temperature;BMP_pressure;BME280_temperature;BME280_humidity;BME280_pressure;Samples;Min_cycle;Max_cycle;Signal;HPM_P1;HPM_P2
2022/11/15 00:01:41;;;;;;;17.67;9.80;;;6.80;99.90;;;;;;4129622;28;20504;-74
2022/11/15 00:03:43;;;;;;;20.10;10.63;;;6.80;99.90;;;;;;4130628;28;20524;-75
2022/11/15 00:05:45;;;;;;;19.87;9.90;;;6.80;99.90;;;;;;4129497;28;20917;-76
2022/11/15 00:07:48;;;;;;;20.30;10.67;;;6.80;99.90;;;;;;4129740;28;20502;-75
2022/11/15 00:09:50;;;;;;;19.67;10.33;;;6.80;99.90;;;;;;4129935;28;20513;-75
2022/11/15 00:11:52;;;;;;;20.33;9.67;;;6.80;99.90;;;;;;4129344;28;20522;-75
2022/11/15 00:13:56;;;;;;;21.63;9.77;;;6.80;99.90;;;;;;4129951;28;20466;-75
2022/11/15 00:15:59;;;;;;;19.73;10.33;;;6.80;99.90;;;;;;4128311;28;20803;-75
2022/11/15 00:18:01;;;;;;;19.13;9.80;;;6.80;99.90;;;;;;4130112;28;20466;-75
2022/11/15 00:20:03;;;;;;;19.27;10.57;;;6.80;99.90;;;;;;4130079;28;20493;-75
2022/11/15 00:22:05;;;;;;;19.67;10.13;;;6.90;99.90;;;;;;4129573;28;20454;-76
2022/11/15 00:24:09;;;;;;;21.47;10.33;;;6.90;99.90;;;;;;4128810;28;20494;-76
2022/11/15 00:26:13;;;;;;;20.33;10.20;;;6.90;99.90;;;;;;4127564;28;20510;-75
2022/11/15 00:28:15;;;;;;;18.57;9.80;;;6.90;99.90;;;;;;4128511;28;20859;-75
2022/11/15 00:30:17;;;;;;;18.70;9.70;;;6.90;99.90;;;;;;4130076;28;20469;-75
2022/11/15 00:32:20;;;;;;;17.50;9.40;;;6.90;99.90;;;;;;4128720;28;20462;-74
2022/11/15 00:34:22;;;;;;;19.30;9.47;;;6.90;99.90;;;;;;4127349;28;20451;-75
2022/11/15 00:36:24;;;;;;;18.00;9.70;;;6.90;99.90;;;;;;4126842;28;20522;-74
2022/11/15 00:38:26;;;;;;;20.30;9.80;;;6.90;99.90;;;;;;4125401;28;20910;-74
2022/11/15 00:40:29;;;;;;;18.40;9.93;;;7.00;99.90;;;;;;4126493;28;20513;-73
2022/11/15 00:42:31;;;;;;;18.37;9.43;;;7.00;99.90;;;;;;4126730;28;20978;-74
2022/11/15 00:44:33;;;;;;;19.90;10.07;;;7.00;99.90;;;;;;4128663;28;20479;-75
2022/11/15 00:46:35;;;;;;;17.77;9.90;;;7.00;99.90;;;;;;4125937;28;20891;-75
2022/11/15 00:48:37;;;;;;;20.90;9.20;;;7.00;99.90;;;;;;4127319;28;20477;-74
2022/11/15 00:50:39;;;;;;;18.53;9.23;;;7.10;99.90;;;;;;4130095;28;20965;-74
2022/11/15 00:52:41;;;;;;;18.83;9.97;;;7.10;99.90;;;;;;4128693;28;20506;-75
2022/11/15 00:54:42;;;;;;;17.30;9.10;;;7.10;99.90;;;;;;4127610;28;20541;-74
2022/11/15 00:56:46;;;;;;;20.40;9.33;;;7.10;99.90;;;;;;4126245;28;21361;-74
2022/11/15 00:58:48;;;;;;;17.33;8.90;;;7.10;99.90;;;;;;4129644;28;20582;-74
2022/11/15 01:00:49;;;;;;;17.97;8.43;;;7.10;99.90;;;;;;4128823;28;20466;-74
2022/11/15 01:02:51;;;;;;;17.83;9.60;;;7.10;99.90;;;;;;4126491;28;20976;-75
2022/11/15 01:04:53;;;;;;;18.47;9.57;;;7.10;99.90;;;;;;4128384;28;20497;-75
2022/11/15 01:06:55;;;;;;;18.37;9.47;;;7.10;99.90;;;;;;4127807;28;20494;-74
2022/11/15 01:08:57;;;;;;;18.10;8.80;;;7.10;99.90;;;;;;4129595;28;20479;-74
2022/11/15 01:11:02;;;;;;;20.30;9.47;;;7.10;99.90;;;;;;4129163;28;20533;-74
2022/11/15 01:13:05;;;;;;;16.37;8.87;;;7.10;99.90;;;;;;4127897;28;20479;-74
2022/11/15 01:15:08;;;;;;;18.70;8.73;;;7.20;99.90;;;;;;4128130;28;20563;-75
2022/11/15 01:17:11;;;;;;;16.30;8.83;;;7.10;99.90;;;;;;4126899;28;20451;-75
2022/11/15 01:19:13;;;;;;;15.80;8.97;;;7.10;99.90;;;;;;4128202;28;20994;-74
2022/11/15 01:21:16;;;;;;;17.93;9.10;;;7.10;99.90;;;;;;4129265;28;20965;-73
2022/11/15 01:23:18;;;;;;;17.40;8.90;;;7.10;99.90;;;;;;4128707;28;20529;-74
2022/11/15 01:25:20;;;;;;;17.60;9.00;;;7.10;99.90;;;;;;4127334;28;20851;-76
2022/11/15 01:27:22;;;;;;;13.97;7.87;;;7.10;99.90;;;;;;4128287;28;20459;-74
2022/11/15 01:29:25;;;;;;;15.30;8.23;;;7.10;99.90;;;;;;4128011;28;20518;-74
2022/11/15 01:31:27;;;;;;;18.53;8.90;;;7.10;99.90;;;;;;4128257;28;20598;-74
2022/11/15 01:33:29;;;;;;;16.63;9.17;;;7.10;99.90;;;;;;4128639;28;20561;-74
2022/11/15 01:35:31;;;;;;;15.97;8.47;;;7.10;99.90;;;;;;4125211;28;20504;-74
2022/11/15 01:37:33;;;;;;;17.43;8.67;;;7.10;99.90;;;;;;4127623;28;20844;-74
2022/11/15 01:39:35;;;;;;;20.47;9.50;;;7.10;99.90;;;;;;4128306;28;20523;-75
2022/11/15 01:41:37;;;;;;;18.47;9.07;;;7.10;99.90;;;;;;4128805;28;20553;-75
2022/11/15 01:43:40;;;;;;;18.60;9.17;;;7.10;99.90;;;;;;4128971;28;20637;-74
2022/11/15 01:45:47;;;;;;;17.30;8.40;;;7.10;99.90;;;;;;4127703;28;21063;-75
2022/11/15 01:47:53;;;;;;;16.27;8.50;;;7.10;99.90;;;;;;4126312;28;20496;-74
2022/11/15 01:49:58;;;;;;;17.40;8.13;;;7.10;99.90;;;;;;4127131;28;20509;-75
2022/11/15 01:52:03;;;;;;;15.83;8.73;;;7.10;99.90;;;;;;4127253;28;20626;-75
2022/11/15 01:54:09;;;;;;;15.63;8.63;;;7.10;99.90;;;;;;4129079;28;20470;-74
2022/11/15 01:56:14;;;;;;;16.77;8.80;;;7.10;99.90;;;;;;4121880;28;20512;-75
2022/11/15 01:58:16;;;;;;;14.93;7.60;;;7.00;99.90;;;;;;4128548;28;20458;-74
2022/11/15 02:00:22;;;;;;;17.43;9.43;;;7.00;99.90;;;;;;4126044;28;20469;-74
2022/11/15 02:02:25;;;;;;;16.10;8.37;;;7.00;99.90;;;;;;4130936;28;20973;-74
2022/11/15 02:04:29;;;;;;;15.60;7.93;;;7.00;99.90;;;;;;4126816;28;20469;-74
2022/11/15 02:06:31;;;;;;;17.07;8.57;;;7.00;99.90;;;;;;4128055;28;20497;-75
2022/11/15 02:08:33;;;;;;;16.77;8.87;;;7.00;99.90;;;;;;4127419;28;20466;-74
2022/11/15 02:10:35;;;;;;;19.47;9.13;;;7.00;99.90;;;;;;4129022;28;20496;-74
2022/11/15 02:12:38;;;;;;;15.97;8.43;;;7.00;99.90;;;;;;4126820;28;20528;-74
2022/11/15 02:14:42;;;;;;;14.33;7.93;;;7.00;99.90;;;;;;4125633;28;20498;-75
2022/11/15 02:16:58;;;;;;;17.17;8.67;;;7.00;99.90;;;;;;4125434;28;20813;-75
2022/11/15 02:19:14;;;;;;;16.77;8.47;;;7.00;99.90;;;;;;4127853;28;20513;-75
2022/11/15 02:21:28;;;;;;;16.63;8.07;;;7.00;99.90;;;;;;4126730;28;20984;-75
2022/11/15 02:23:57;;;;;;;16.60;8.33;;;7.00;99.90;;;;;;4164962;23;20524;-77
2022/11/15 02:26:13;;;;;;;13.50;7.50;;;7.00;99.90;;;;;;4142087;28;20454;-77
2022/11/15 02:28:39;;;;;;;15.97;8.03;;;7.00;99.90;;;;;;4143321;28;20859;-77
2022/11/15 02:30:47;;;;;;;16.40;8.40;;;7.00;99.90;;;;;;4144448;28;20456;-77
2022/11/15 02:32:56;;;;;;;14.50;7.93;;;7.00;99.90;;;;;;4142488;28;20933;-77
2022/11/15 02:35:02;;;;;;;16.43;8.37;;;6.90;99.90;;;;;;4129874;28;20455;-78
2022/11/15 02:37:11;;;;;;;15.73;8.03;;;6.90;99.90;;;;;;4116400;28;20453;-79
2022/11/15 02:39:22;;;;;;;14.40;8.20;;;6.80;99.90;;;;;;4119454;28;20462;-79
2022/11/15 02:41:31;;;;;;;16.23;8.50;;;6.90;99.90;;;;;;4116436;28;20466;-78
2022/11/15 02:43:57;;;;;;;16.63;8.00;;;6.90;99.90;;;;;;4116988;28;20491;-79
2022/11/15 02:46:06;;;;;;;17.50;8.30;;;6.90;99.90;;;;;;4119681;28;20460;-79
2022/11/15 02:48:09;;;;;;;15.53;8.17;;;6.90;99.90;;;;;;4126763;28;20481;-78
2022/11/15 02:50:13;;;;;;;15.13;8.00;;;6.90;99.90;;;;;;4136127;28;20503;-78
2022/11/15 02:52:17;;;;;;;13.67;7.60;;;6.90;99.90;;;;;;4121780;28;20498;-77
2022/11/15 02:54:23;;;;;;;14.93;7.80;;;6.90;99.90;;;;;;4119210;28;20566;-78
2022/11/15 02:56:25;;;;;;;14.47;7.87;;;6.90;99.90;;;;;;4137570;28;20468;-78
2022/11/15 02:58:49;;;;;;;14.23;7.57;;;6.80;99.90;;;;;;4119838;28;20929;-79
2022/11/15 03:01:02;;;;;;;16.97;8.00;;;6.80;99.90;;;;;;4133082;28;20504;-79
2022/11/15 03:03:25;;;;;;;15.53;8.13;;;6.80;99.90;;;;;;4118961;28;20474;-78
2022/11/15 03:05:36;;;;;;;14.77;8.33;;;6.80;99.90;;;;;;4122890;28;20467;-78
2022/11/15 03:07:45;;;;;;;14.83;7.80;;;6.80;99.90;;;;;;4121959;28;20862;-79
2022/11/15 03:09:55;;;;;;;16.03;7.53;;;6.80;99.90;;;;;;4122541;28;20469;-78
2022/11/15 03:12:04;;;;;;;14.13;7.83;;;6.80;99.90;;;;;;4117028;28;20558;-78
2022/11/15 03:14:14;;;;;;;14.53;7.93;;;6.80;99.90;;;;;;4117878;28;20541;-78
2022/11/15 03:16:21;;;;;;;13.83;7.77;;;6.80;99.90;;;;;;4114749;28;20953;-78
2022/11/15 03:18:29;;;;;;;18.10;8.37;;;6.80;99.90;;;;;;4115435;28;20462;-78
2022/11/15 03:20:32;;;;;;;15.20;7.93;;;6.80;99.90;;;;;;4113604;28;20872;-78
2022/11/15 03:22:37;;;;;;;14.07;8.07;;;6.80;99.90;;;;;;4118191;28;20462;-78
2022/11/15 03:24:40;;;;;;;13.77;7.60;;;6.80;99.90;;;;;;4115746;28;20509;-78
2022/11/15 03:26:44;;;;;;;13.43;7.37;;;6.80;99.90;;;;;;4140292;28;20453;-79
2022/11/15 03:28:50;;;;;;;15.20;7.80;;;6.80;99.90;;;;;;4137496;28;20515;-78
2022/11/15 03:30:54;;;;;;;16.17;8.47;;;6.80;99.90;;;;;;4139867;28;21027;-78
2022/11/15 03:32:59;;;;;;;15.47;8.33;;;6.80;99.90;;;;;;4119085;28;20489;-78
2022/11/15 03:35:05;;;;;;;14.77;7.60;;;6.80;99.90;;;;;;4124344;28;20552;-79
2022/11/15 03:37:09;;;;;;;14.83;7.43;;;6.80;99.90;;;;;;4120882;28;20459;-78
2022/11/15 03:39:13;;;;;;;14.83;7.53;;;6.80;99.90;;;;;;4121346;28;20915;-79
2022/11/15 03:41:24;;;;;;;18.30;7.73;;;6.80;99.90;;;;;;4125021;28;20470;-79
2022/11/15 03:43:36;;;;;;;13.23;7.63;;;6.80;99.90;;;;;;4125000;28;20572;-78
2022/11/15 03:45:45;;;;;;;14.83;7.27;;;6.90;99.90;;;;;;4125196;28;21141;-78
2022/11/15 03:47:52;;;;;;;17.23;7.40;;;6.80;99.90;;;;;;4127173;28;20454;-79
2022/11/15 03:50:00;;;;;;;14.77;7.20;;;6.80;99.90;;;;;;4122513;28;20949;-78
2022/11/15 03:52:05;;;;;;;12.97;7.23;;;6.80;99.90;;;;;;4122257;28;20559;-78
2022/11/15 03:54:08;;;;;;;14.30;6.90;;;6.80;99.90;;;;;;4126398;28;20481;-76
2022/11/15 03:56:10;;;;;;;16.87;7.27;;;6.80;99.90;;;;;;4126287;28;20915;-76
2022/11/15 03:58:12;;;;;;;13.97;7.23;;;6.80;99.90;;;;;;4125147;28;20470;-76
2022/11/15 04:00:15;;;;;;;12.40;6.33;;;6.80;99.90;;;;;;4124333;28;20459;-77
2022/11/15 04:02:17;;;;;;;13.67;6.53;;;6.80;99.90;;;;;;4120392;28;20459;-76
2022/11/15 04:04:19;;;;;;;13.77;7.23;;;6.80;99.90;;;;;;4118787;28;20515;-76
2022/11/15 04:06:21;;;;;;;12.33;6.77;;;6.70;99.90;;;;;;4121367;28;20502;-76
2022/11/15 04:08:24;;;;;;;17.17;7.97;;;6.70;99.90;;;;;;4120985;28;20464;-76
2022/11/15 04:10:28;;;;;;;12.27;6.87;;;6.70;99.90;;;;;;4137924;28;20446;-76
2022/11/15 04:12:33;;;;;;;13.33;6.80;;;6.70;99.90;;;;;;4120526;28;20487;-76
2022/11/15 04:14:35;;;;;;;14.47;7.67;;;6.70;99.90;;;;;;4120445;28;20553;-76
2022/11/15 04:16:37;;;;;;;13.37;7.13;;;6.70;99.90;;;;;;4122145;28;20487;-76
2022/11/15 04:18:39;;;;;;;13.37;7.37;;;6.70;99.90;;;;;;4119540;28;20463;-79
2022/11/15 04:25:23;;;;;;;14.37;6.57;;;6.70;99.90;;;;;;4119839;28;20532;-77
2022/11/15 04:27:24;;;;;;;15.63;7.80;;;6.70;99.90;;;;;;4124721;28;20468;-76
2022/11/15 04:29:34;;;;;;;12.90;6.50;;;6.70;99.90;;;;;;4119376;28;21065;-77
2022/11/15 04:31:36;;;;;;;16.60;8.30;;;6.70;99.90;;;;;;4121933;28;20460;-76
2022/11/15 04:33:38;;;;;;;17.50;7.23;;;6.70;99.90;;;;;;4132385;28;20490;-76
2022/11/15 04:35:40;;;;;;;14.47;7.43;;;6.70;99.90;;;;;;4123744;28;21247;-76
2022/11/15 04:37:41;;;;;;;14.13;7.23;;;6.70;99.90;;;;;;4135277;28;20467;-76
2022/11/15 04:39:44;;;;;;;12.60;6.63;;;6.70;99.90;;;;;;4134750;28;20457;-76
2022/11/15 04:41:47;;;;;;;13.30;6.80;;;6.60;99.90;;;;;;4122829;28;20678;-76
2022/11/15 04:43:49;;;;;;;13.70;7.27;;;6.60;99.90;;;;;;4118094;28;20470;-77
2022/11/15 04:45:51;;;;;;;11.87;6.70;;;6.70;99.90;;;;;;4122311;28;20976;-76
2022/11/15 04:47:53;;;;;;;14.77;7.40;;;6.60;99.90;;;;;;4122848;28;20947;-76
2022/11/15 04:49:55;;;;;;;12.23;6.60;;;6.60;99.90;;;;;;4124404;28;21036;-76
2022/11/15 04:51:57;;;;;;;13.40;6.87;;;6.60;99.90;;;;;;4120865;28;20910;-77
2022/11/15 04:53:59;;;;;;;13.67;7.20;;;6.70;99.90;;;;;;4136718;28;20474;-76
2022/11/15 04:56:01;;;;;;;13.20;6.67;;;6.70;99.90;;;;;;4119628;28;20464;-76
2022/11/15 04:58:04;;;;;;;12.53;7.23;;;6.70;99.90;;;;;;4120024;28;21012;-76
2022/11/15 05:00:08;;;;;;;13.10;6.83;;;6.70;99.90;;;;;;4139347;28;20471;-76
2022/11/15 05:02:10;;;;;;;13.43;7.00;;;6.70;99.90;;;;;;4117517;28;20510;-77
2022/11/15 05:04:20;;;;;;;12.23;6.83;;;6.60;99.90;;;;;;4118852;28;20492;-76
2022/11/15 05:06:22;;;;;;;13.87;7.47;;;6.60;99.90;;;;;;4120304;28;20925;-76
2022/11/15 05:08:24;;;;;;;13.23;7.20;;;6.60;99.90;;;;;;4128117;28;20490;-77
2022/11/15 05:10:26;;;;;;;15.87;7.37;;;6.60;99.90;;;;;;4117277;28;20826;-77
2022/11/15 05:12:28;;;;;;;12.80;7.20;;;6.70;99.90;;;;;;4134284;28;20550;-77
2022/11/15 05:14:31;;;;;;;15.03;7.20;;;6.70;99.90;;;;;;4119819;28;20486;-76
2022/11/15 05:16:33;;;;;;;13.50;6.47;;;6.70;99.90;;;;;;4121205;28;20495;-77
2022/11/15 05:18:35;;;;;;;13.37;7.17;;;6.70;99.90;;;;;;4118979;28;20464;-75
2022/11/15 05:20:37;;;;;;;15.93;7.47;;;6.70;99.90;;;;;;4119712;28;20550;-75
2022/11/15 05:22:39;;;;;;;12.80;7.20;;;6.70;99.90;;;;;;4117363;28;20463;-75
2022/11/15 05:24:41;;;;;;;14.10;7.13;;;6.70;99.90;;;;;;4119338;28;20577;-75
2022/11/15 05:26:43;;;;;;;12.63;6.57;;;6.60;99.90;;;;;;4117362;28;20479;-75
2022/11/15 05:28:46;;;;;;;11.20;5.97;;;6.70;99.90;;;;;;4119848;28;20499;-76
2022/11/15 05:30:49;;;;;;;10.83;6.33;;;6.60;99.90;;;;;;4113317;28;20494;-75
2022/11/15 05:32:55;;;;;;;11.83;6.60;;;6.60;99.90;;;;;;4116654;28;20525;-76
2022/11/15 05:34:57;;;;;;;13.13;7.10;;;6.60;99.90;;;;;;4120272;28;20445;-76
2022/11/15 05:37:00;;;;;;;12.57;6.87;;;6.60;99.90;;;;;;4117112;28;20474;-75
2022/11/15 05:39:03;;;;;;;12.47;7.60;;;6.60;99.90;;;;;;4120346;28;20459;-75
2022/11/15 05:41:06;;;;;;;15.60;7.00;;;6.60;99.90;;;;;;4117206;28;20965;-75
2022/11/15 05:43:08;;;;;;;14.70;7.23;;;6.60;99.90;;;;;;4121835;28;20531;-75
2022/11/15 05:45:11;;;;;;;13.13;6.63;;;6.60;99.90;;;;;;4123102;28;20557;-76
2022/11/15 05:47:17;;;;;;;13.83;6.90;;;6.60;99.90;;;;;;4122428;28;20498;-75
2022/11/15 05:49:22;;;;;;;15.57;7.17;;;6.60;99.90;;;;;;4118839;28;20481;-76
2022/11/15 05:51:25;;;;;;;12.70;6.57;;;6.60;99.90;;;;;;4120611;28;20479;-77
2022/11/15 05:53:27;;;;;;;11.37;6.40;;;6.60;99.90;;;;;;4116146;28;21072;-78
2022/11/15 05:55:29;;;;;;;13.40;6.87;;;6.60;99.90;;;;;;4120133;28;20996;-78
2022/11/15 05:57:31;;;;;;;11.80;7.00;;;6.60;99.90;;;;;;4116704;28;20460;-75
2022/11/15 05:59:35;;;;;;;12.83;6.73;;;6.60;99.90;;;;;;4137799;28;21023;-76
2022/11/15 06:01:38;;;;;;;14.37;6.93;;;6.60;99.90;;;;;;4120761;28;20976;-77
2022/11/15 06:03:41;;;;;;;14.60;7.47;;;6.60;99.90;;;;;;4121728;28;20505;-76
2022/11/15 06:05:43;;;;;;;14.63;7.87;;;6.60;99.90;;;;;;4119200;28;20452;-76
2022/11/15 06:07:45;;;;;;;15.37;7.43;;;6.60;99.90;;;;;;4120070;28;20508;-76
2022/11/15 06:09:47;;;;;;;15.20;7.47;;;6.60;99.90;;;;;;4121929;28;20486;-76
2022/11/15 06:11:49;;;;;;;13.10;7.70;;;6.60;99.90;;;;;;4125062;28;20458;-75
2022/11/15 06:13:51;;;;;;;13.10;7.43;;;6.60;99.90;;;;;;4127205;28;20492;-76
2022/11/15 06:15:56;;;;;;;15.00;7.03;;;6.60;99.90;;;;;;4122379;28;20501;-75
2022/11/15 06:17:58;;;;;;;14.10;7.30;;;6.60;99.90;;;;;;4120887;28;20463;-75
2022/11/15 06:20:02;;;;;;;13.90;7.00;;;6.60;99.90;;;;;;4121831;28;20553;-75
2022/11/15 06:22:04;;;;;;;15.37;6.93;;;6.60;99.90;;;;;;4118977;28;20457;-75
2022/11/15 06:24:07;;;;;;;13.83;6.83;;;6.60;99.90;;;;;;4125474;28;20520;-75
2022/11/15 06:26:09;;;;;;;12.60;6.90;;;6.60;99.90;;;;;;4125932;28;20470;-76
2022/11/15 06:28:10;;;;;;;13.70;6.80;;;6.60;99.90;;;;;;4121937;28;20482;-76
2022/11/15 06:30:13;;;;;;;12.63;7.13;;;6.60;99.90;;;;;;4121074;28;20455;-75
2022/11/15 06:32:14;;;;;;;13.27;7.60;;;6.50;99.90;;;;;;4123478;28;20481;-75
2022/11/15 06:34:16;;;;;;;13.33;7.37;;;6.50;99.90;;;;;;4121693;28;20475;-77
2022/11/15 06:36:20;;;;;;;12.80;7.37;;;6.50;99.90;;;;;;4127135;28;20465;-75
2022/11/15 06:38:24;;;;;;;13.90;7.20;;;6.60;99.90;;;;;;4123628;28;20478;-75
2022/11/15 06:40:26;;;;;;;13.50;7.10;;;6.50;99.90;;;;;;4124569;28;20481;-75
2022/11/15 06:42:29;;;;;;;15.40;7.17;;;6.50;99.90;;;;;;4120789;28;20457;-75
2022/11/15 06:44:30;;;;;;;15.17;7.17;;;6.50;99.90;;;;;;4127307;28;20483;-75
2022/11/15 06:46:38;;;;;;;14.57;7.10;;;6.50;99.90;;;;;;4123399;28;20968;-75
2022/11/15 06:48:40;;;;;;;15.60;7.47;;;6.50;99.90;;;;;;4116836;28;20465;-75
2022/11/15 06:50:42;;;;;;;13.50;7.20;;;6.50;99.90;;;;;;4118454;28;20464;-75
2022/11/15 06:52:45;;;;;;;13.83;7.17;;;6.50;99.90;;;;;;4138113;28;20476;-75
2022/11/15 06:54:47;;;;;;;13.80;7.10;;;6.50;99.90;;;;;;4122343;28;20465;-75
2022/11/15 06:56:50;;;;;;;13.43;6.87;;;6.50;99.90;;;;;;4122106;28;20557;-75
2022/11/15 06:58:52;;;;;;;14.77;7.33;;;6.50;99.90;;;;;;4118988;28;20455;-76
2022/11/15 07:00:54;;;;;;;13.00;6.70;;;6.50;99.90;;;;;;4123397;28;20815;-75
2022/11/15 07:02:55;;;;;;;12.27;6.93;;;6.50;99.90;;;;;;4124604;28;20510;-76
2022/11/15 07:04:57;;;;;;;12.40;6.93;;;6.50;99.90;;;;;;4116878;28;20541;-74
2022/11/15 07:06:59;;;;;;;14.10;6.93;;;6.50;99.90;;;;;;4121519;28;20474;-75
2022/11/15 07:09:04;;;;;;;13.33;7.13;;;6.60;99.90;;;;;;4124389;28;20550;-75
2022/11/15 07:11:08;;;;;;;16.00;7.27;;;6.50;99.90;;;;;;4122181;28;20458;-75
2022/11/15 07:13:11;;;;;;;13.47;6.93;;;6.60;99.90;;;;;;4123526;28;21352;-75
2022/11/15 07:15:13;;;;;;;15.50;7.17;;;6.60;99.90;;;;;;4124334;28;20464;-74
2022/11/15 07:17:15;;;;;;;18.03;7.70;;;6.60;99.90;;;;;;4125285;28;20476;-75
2022/11/15 07:19:17;;;;;;;18.23;7.67;;;6.60;99.90;;;;;;4125343;28;20466;-75
2022/11/15 07:21:19;;;;;;;12.53;6.77;;;6.60;99.90;;;;;;4121781;28;20454;-75
2022/11/15 07:23:21;;;;;;;13.50;7.33;;;6.60;99.90;;;;;;4125184;28;20510;-75
2022/11/15 07:25:24;;;;;;;13.73;7.63;;;6.70;99.90;;;;;;4124649;28;20474;-76
2022/11/15 07:27:26;;;;;;;11.90;6.97;;;6.70;99.90;;;;;;4126963;28;20474;-75
2022/11/15 07:29:28;;;;;;;13.43;7.00;;;6.70;99.90;;;;;;4123991;28;21207;-74
2022/11/15 07:31:30;;;;;;;12.07;6.67;;;6.70;99.90;;;;;;4122030;28;20459;-75
2022/11/15 07:33:32;;;;;;;14.63;7.47;;;6.60;99.90;;;;;;4121875;28;20502;-75
2022/11/15 07:35:34;;;;;;;14.10;8.07;;;6.70;99.90;;;;;;4122205;28;20466;-75
2022/11/15 07:37:36;;;;;;;14.50;7.90;;;6.70;99.90;;;;;;4125099;28;20494;-75
2022/11/15 07:39:38;;;;;;;15.50;7.10;;;6.70;99.90;;;;;;4121769;28;20455;-75
2022/11/15 07:41:43;;;;;;;14.43;7.50;;;6.80;99.90;;;;;;4121025;28;20452;-73
2022/11/15 07:43:45;;;;;;;13.47;7.10;;;6.80;99.90;;;;;;4122719;28;20470;-74
2022/11/15 07:45:47;;;;;;;14.20;6.77;;;6.80;99.90;;;;;;4124672;28;20965;-75
2022/11/15 07:47:49;;;;;;;13.40;6.50;;;6.80;99.90;;;;;;4124893;28;20475;-75
2022/11/15 07:49:51;;;;;;;13.07;6.07;;;6.80;99.90;;;;;;4123140;28;20462;-75
2022/11/15 07:51:54;;;;;;;11.23;6.70;;;6.80;99.90;;;;;;4125024;28;21025;-75
2022/11/15 07:53:56;;;;;;;13.13;7.10;;;6.90;99.90;;;;;;4125296;28;20494;-75
2022/11/15 07:55:58;;;;;;;11.83;6.77;;;6.90;99.90;;;;;;4124418;28;20487;-74
2022/11/15 07:58:06;;;;;;;12.27;6.57;;;7.00;99.90;;;;;;4123230;28;20558;-75
2022/11/15 08:00:09;;;;;;;14.63;7.20;;;7.00;99.90;;;;;;4124882;28;20443;-75
2022/11/15 08:02:11;;;;;;;11.83;6.70;;;7.10;99.90;;;;;;4129166;28;20457;-75
2022/11/15 08:04:13;;;;;;;12.53;6.63;;;7.10;99.90;;;;;;4123826;28;20563;-76
2022/11/15 08:06:15;;;;;;;13.00;6.23;;;7.10;99.90;;;;;;4123047;28;20452;-76
2022/11/15 08:08:17;;;;;;;11.90;6.10;;;7.20;99.90;;;;;;4123612;28;20479;-77
2022/11/15 08:10:20;;;;;;;17.33;8.73;;;7.20;99.90;;;;;;4119833;28;20467;-76
2022/11/15 08:12:22;;;;;;;17.17;8.30;;;7.40;99.90;;;;;;4115381;28;20459;-76
2022/11/15 08:14:26;;;;;;;17.47;8.53;;;7.20;99.90;;;;;;4122190;28;20541;-76
2022/11/15 08:16:30;;;;;;;12.43;7.20;;;7.40;99.90;;;;;;4138043;28;20467;-77
2022/11/15 08:18:32;;;;;;;11.47;6.37;;;7.40;99.90;;;;;;4118382;28;20464;-75
2022/11/15 08:20:37;;;;;;;12.60;5.83;;;7.40;99.90;;;;;;4120483;28;20518;-76
2022/11/15 08:22:39;;;;;;;10.37;6.60;;;7.50;99.90;;;;;;4118158;28;20467;-77
2022/11/15 08:24:41;;;;;;;9.83;6.00;;;7.50;99.90;;;;;;4116624;28;20491;-76
2022/11/15 08:26:43;;;;;;;12.53;6.30;;;7.60;99.90;;;;;;4119876;28;20451;-76
2022/11/15 08:28:48;;;;;;;11.90;6.00;;;7.70;99.90;;;;;;4122105;28;20463;-78
2022/11/15 08:30:51;;;;;;;11.50;6.03;;;7.70;99.90;;;;;;4142531;28;20459;-78
2022/11/15 08:33:00;;;;;;;14.13;6.80;;;7.80;99.90;;;;;;4123336;28;20469;-75
2022/11/15 08:35:02;;;;;;;10.53;5.57;;;7.80;99.90;;;;;;4126877;28;20465;-76
2022/11/15 08:37:05;;;;;;;10.03;5.50;;;7.90;99.90;;;;;;4122021;28;20543;-77
2022/11/15 08:39:06;;;;;;;9.43;5.40;;;7.90;99.90;;;;;;4129742;28;20451;-77
2022/11/15 08:41:13;;;;;;;12.53;5.80;;;7.90;99.90;;;;;;4119294;28;20521;-76
2022/11/15 08:43:15;;;;;;;10.50;5.87;;;8.00;99.90;;;;;;4122331;28;20524;-78
2022/11/15 08:45:17;;;;;;;11.17;5.87;;;8.10;99.90;;;;;;4153755;23;20860;-75
2022/11/15 08:47:20;;;;;;;11.23;5.53;;;8.10;99.90;;;;;;4131782;28;20949;-74
2022/11/15 08:49:28;;;;;;;9.47;6.00;;;8.10;99.90;;;;;;4129671;28;20462;-74
2022/11/15 08:51:33;;;;;;;9.03;5.07;;;8.20;99.90;;;;;;4125046;28;20451;-75
2022/11/15 08:53:49;;;;;;;12.07;5.43;;;8.20;99.90;;;;;;4126365;28;20846;-75
2022/11/15 08:55:51;;;;;;;11.77;6.50;;;8.20;99.90;;;;;;4110646;28;20475;-75
2022/11/15 08:57:53;;;;;;;16.87;8.63;;;8.30;99.90;;;;;;4105072;28;21043;-75
2022/11/15 08:59:55;;;;;;;13.03;6.53;;;8.30;99.90;;;;;;4106073;28;20485;-75
2022/11/15 09:02:07;;;;;;;;;;;;;;;;;;;;;
2022/11/15 09:04:10;;;;;;;7.83;4.77;;;8.80;99.90;;;;;;4105045;28;21181;-75
2022/11/15 09:06:15;;;;;;;8.23;4.87;;;8.60;99.90;;;;;;4105796;28;20576;-75
2022/11/15 09:08:18;;;;;;;11.97;5.43;;;8.60;99.90;;;;;;4118880;28;20471;-75
2022/11/15 09:10:20;;;;;;;9.83;5.73;;;8.70;99.90;;;;;;4103136;28;20877;-75
2022/11/15 09:12:22;;;;;;;8.97;5.03;;;8.80;99.90;;;;;;4103919;28;20456;-75
2022/11/15 09:14:24;;;;;;;9.47;4.93;;;9.00;99.90;;;;;;4103184;28;20240;-75
2022/11/15 09:16:26;;;;;;;8.70;5.17;;;8.80;99.90;;;;;;4105871;28;20296;-74
2022/11/15 09:18:28;;;;;;;9.70;4.90;;;8.90;99.90;;;;;;4106755;28;20255;-74
2022/11/15 09:20:33;;;;;;;9.77;4.57;;;9.00;99.90;;;;;;4109303;28;20288;-75
2022/11/15 09:22:36;;;;;;;7.03;4.30;;;9.00;99.90;;;;;;4106435;28;20213;-75
2022/11/15 09:24:38;;;;;;;9.00;4.67;;;9.00;99.90;;;;;;4105419;28;20225;-74
2022/11/15 09:26:40;;;;;;;8.17;4.67;;;9.10;99.90;;;;;;4102490;28;20271;-75
2022/11/15 09:28:42;;;;;;;7.70;4.60;;;9.10;99.90;;;;;;4106592;28;20225;-75
2022/11/15 09:30:44;;;;;;;11.43;4.80;;;9.20;99.90;;;;;;4105027;28;20554;-75
2022/11/15 09:32:46;;;;;;;10.17;4.63;;;9.20;99.90;;;;;;4104428;28;20210;-75
2022/11/15 09:34:51;;;;;;;6.87;4.23;;;9.30;99.90;;;;;;4104666;28;20226;-74
2022/11/15 09:36:54;;;;;;;7.03;4.30;;;9.30;99.90;;;;;;4104353;28;20547;-74
2022/11/15 09:38:58;;;;;;;7.67;4.27;;;9.40;99.90;;;;;;4107327;28;20590;-74
2022/11/15 09:41:28;;;;;;;7.03;4.20;;;9.40;99.90;;;;;;4101354;28;20260;-75
2022/11/15 09:43:37;;;;;;;6.20;3.57;;;9.50;99.90;;;;;;4104432;28;20210;-75
2022/11/15 09:45:51;;;;;;;6.70;4.17;;;9.60;99.90;;;;;;4099239;28;20267;-75
2022/11/15 09:48:09;;;;;;;7.67;3.90;;;9.70;99.90;;;;;;4102698;28;20317;-74
2022/11/15 09:50:13;;;;;;;7.13;3.60;;;9.80;99.90;;;;;;4103711;28;20639;-75
2022/11/15 09:52:17;;;;;;;6.70;3.57;;;9.90;99.90;;;;;;4105447;28;20217;-74
2022/11/15 09:54:30;;;;;;;5.43;3.37;;;10.00;99.90;;;;;;4113465;28;20229;-74
2022/11/15 09:56:33;;;;;;;8.27;3.97;;;10.10;99.90;;;;;;4099455;28;20296;-74
2022/11/15 09:58:40;;;;;;;6.73;3.50;;;10.20;99.90;;;;;;4104826;28;20567;-74
2022/11/15 10:00:48;;;;;;;6.33;3.37;;;10.30;99.90;;;;;;4104997;28;20214;-74
2022/11/15 10:03:03;;;;;;;5.00;3.20;;;10.40;99.90;;;;;;4104741;28;20343;-74
2022/11/15 10:05:08;;;;;;;5.63;3.43;;;10.50;99.90;;;;;;4104942;28;20265;-74
2022/11/15 10:07:19;;;;;;;7.17;3.23;;;10.70;99.90;;;;;;4103106;28;20309;-74
2022/11/15 10:09:25;;;;;;;6.03;3.20;;;10.80;99.90;;;;;;4110315;28;20218;-73
2022/11/15 10:11:29;;;;;;;5.30;3.10;;;10.90;99.90;;;;;;4104027;28;20220;-74
2022/11/15 10:13:33;;;;;;;5.00;3.17;;;11.00;99.90;;;;;;4102118;28;20236;-74
2022/11/15 10:15:36;;;;;;;5.60;3.17;;;11.10;99.90;;;;;;4100952;28;20249;-74
2022/11/15 10:17:56;;;;;;;5.70;3.27;;;11.20;99.90;;;;;;4104370;28;20623;-73
2022/11/15 10:20:11;;;;;;;5.20;2.90;;;11.30;99.90;;;;;;4105154;28;20695;-74
2022/11/15 10:22:23;;;;;;;7.57;3.30;;;11.40;99.90;;;;;;4102928;28;20219;-74
2022/11/15 10:24:29;;;;;;;5.43;3.23;;;11.50;99.90;;;;;;4102194;28;20308;-74
2022/11/15 10:26:31;;;;;;;4.63;3.20;;;11.50;99.90;;;;;;4103463;28;21155;-74
2022/11/15 10:28:32;;;;;;;5.00;2.90;;;11.60;99.90;;;;;;4100648;28;20278;-75
2022/11/15 10:30:37;;;;;;;5.50;3.10;;;11.80;99.90;;;;;;4104826;28;20248;-73
2022/11/15 10:32:40;;;;;;;7.10;3.03;;;11.80;99.90;;;;;;4107894;28;20252;-73
2022/11/15 10:34:42;;;;;;;7.97;3.13;;;12.00;99.90;;;;;;4106068;28;20243;-74
2022/11/15 10:36:46;;;;;;;5.03;3.10;;;12.00;99.90;;;;;;4106717;28;20842;-74
2022/11/15 10:38:57;;;;;;;6.03;2.93;;;12.10;99.90;;;;;;4108289;28;20239;-74
2022/11/15 10:41:08;;;;;;;5.13;2.77;;;12.20;99.90;;;;;;4103830;28;20205;-74
2022/11/15 10:43:17;;;;;;;5.37;2.97;;;12.30;99.90;;;;;;4108648;28;20203;-74
2022/11/15 10:45:39;;;;;;;5.23;2.73;;;12.40;99.90;;;;;;4105811;28;20807;-75
2022/11/15 10:47:41;;;;;;;4.07;2.70;;;12.50;99.90;;;;;;4109645;28;20697;-74
2022/11/15 10:49:58;;;;;;;4.93;3.17;;;12.60;99.90;;;;;;4108806;28;20269;-74
2022/11/15 10:52:04;;;;;;;5.20;3.00;;;12.70;99.90;;;;;;4111066;28;20252;-74
2022/11/15 10:54:11;;;;;;;4.77;3.20;;;12.90;99.90;;;;;;4105919;28;20229;-77